sensor_id;sensor_type;location;lat;lon;timestamp;temperature;humidity
8820;DHT22;4446;50.876;4.736;2023-08-31T00:00:15;10.50;99.90
8820;DHT22;4446;50.876;4.736;2023-08-31T00:02:42;10.60;99.90
8820;DHT22;4446;50.876;4.736;2023-08-31T00:05:10;10.60;99.90
8820;DHT22;4446;50.876;4.736;2023-08-31T00:07:37;10.50;99.90
8820;DHT22;4446;50.876;4.736;2023-08-31T00:10:05;10.60;99.90
8820;DHT22;4446;50.876;4.736;2023-08-31T00:12:35;10.60;99.90
8820;DHT22;4446;50.876;4.736;2023-08-31T00:15:04;10.60;99.90
8820;DHT22;4446;50.876;4.736;2023-08-31T00:17:31;10.60;99.90
8820;DHT22;4446;50.876;4.736;2023-08-31T00:19:58;10.60;99.90
8820;DHT22;4446;50.876;4.736;2023-08-31T00:22:27;10.60;99.90
8820;DHT22;4446;50.876;4.736;2023-08-31T00:24:54;10.60;99.90
8820;DHT22;4446;50.876;4.736;2023-08-31T00:27:21;10.60;99.90
8820;DHT22;4446;50.876;4.736;2023-08-31T00:29:48;10.60;99.90
8820;DHT22;4446;50.876;4.736;2023-08-31T00:32:16;10.60;99.90
8820;DHT22;4446;50.876;4.736;2023-08-31T00:34:43;10.50;99.90
8820;DHT22;4446;50.876;4.736;2023-08-31T00:37:10;10.70;99.90
8820;DHT22;4446;50.876;4.736;2023-08-31T00:39:39;10.70;99.90
8820;DHT22;4446;50.876;4.736;2023-08-31T00:42:06;10.70;99.90
8820;DHT22;4446;50.876;4.736;2023-08-31T00:44:34;10.60;99.90
8820;DHT22;4446;50.876;4.736;2023-08-31T00:47:02;10.60;99.90
8820;DHT22;4446;50.876;4.736;2023-08-31T00:49:29;10.60;99.90
8820;DHT22;4446;50.876;4.736;2023-08-31T00:51:56;10.60;99.90
8820;DHT22;4446;50.876;4.736;2023-08-31T00:54:23;10.70;99.90
8820;DHT22;4446;50.876;4.736;2023-08-31T00:56:54;10.70;99.90
8820;DHT22;4446;50.876;4.736;2023-08-31T00:59:22;10.70;99.90
8820;DHT22;4446;50.876;4.736;2023-08-31T01:01:54;10.70;99.90
8820;DHT22;4446;50.876;4.736;2023-08-31T01:04:32;10.70;99.90
8820;DHT22;4446;50.876;4.736;2023-08-31T01:07:07;10.80;99.90
8820;DHT22;4446;50.876;4.736;2023-08-31T01:09:40;10.80;99.90
8820;DHT22;4446;50.876;4.736;2023-08-31T01:12:15;10.70;99.90
8820;DHT22;4446;50.876;4.736;2023-08-31T01:14:47;10.70;99.90
8820;DHT22;4446;50.876;4.736;2023-08-31T01:17:17;10.60;99.90
8820;DHT22;4446;50.876;4.736;2023-08-31T01:19:49;10.60;99.90
8820;DHT22;4446;50.876;4.736;2023-08-31T01:22:25;10.50;99.90
8820;DHT22;4446;50.876;4.736;2023-08-31T01:24:55;10.40;99.90
8820;DHT22;4446;50.876;4.736;2023-08-31T01:27:23;10.40;99.90
8820;DHT22;4446;50.876;4.736;2023-08-31T01:29:50;10.50;99.90
8820;DHT22;4446;50.876;4.736;2023-08-31T01:32:19;10.40;99.90
8820;DHT22;4446;50.876;4.736;2023-08-31T01:34:46;10.40;99.90
8820;DHT22;4446;50.876;4.736;2023-08-31T01:37:16;10.40;99.90
8820;DHT22;4446;50.876;4.736;2023-08-31T01:39:47;10.50;99.90
8820;DHT22;4446;50.876;4.736;2023-08-31T01:42:17;10.60;99.90
8820;DHT22;4446;50.876;4.736;2023-08-31T01:44:47;10.50;99.90
8820;DHT22;4446;50.876;4.736;2023-08-31T01:47:16;10.50;99.90
8820;DHT22;4446;50.876;4.736;2023-08-31T01:49:44;10.50;99.90
8820;DHT22;4446;50.876;4.736;2023-08-31T01:52:12;10.40;99.90
8820;DHT22;4446;50.876;4.736;2023-08-31T01:54:40;10.40;99.90
8820;DHT22;4446;50.876;4.736;2023-08-31T01:57:07;10.30;99.90
8820;DHT22;4446;50.876;4.736;2023-08-31T01:59:36;10.40;99.90
8820;DHT22;4446;50.876;4.736;2023-08-31T02:02:03;10.40;99.90
8820;DHT22;4446;50.876;4.736;2023-08-31T02:04:30;10.50;99.90
8820;DHT22;4446;50.876;4.736;2023-08-31T02:06:57;10.50;99.90
8820;DHT22;4446;50.876;4.736;2023-08-31T02:09:24;10.50;99.90
8820;DHT22;4446;50.876;4.736;2023-08-31T02:11:51;10.50;99.90
8820;DHT22;4446;50.876;4.736;2023-08-31T02:14:20;10.50;99.90
8820;DHT22;4446;50.876;4.736;2023-08-31T02:16:49;10.50;99.90
8820;DHT22;4446;50.876;4.736;2023-08-31T02:19:16;10.40;99.90
8820;DHT22;4446;50.876;4.736;2023-08-31T02:21:43;10.60;99.90
8820;DHT22;4446;50.876;4.736;2023-08-31T02:24:10;10.60;99.90
8820;DHT22;4446;50.876;4.736;2023-08-31T02:26:37;10.60;99.90
8820;DHT22;4446;50.876;4.736;2023-08-31T02:29:04;10.60;99.90
8820;DHT22;4446;50.876;4.736;2023-08-31T02:31:31;10.50;99.90
8820;DHT22;4446;50.876;4.736;2023-08-31T02:34:00;10.50;99.90
8820;DHT22;4446;50.876;4.736;2023-08-31T02:36:27;10.50;99.90
8820;DHT22;4446;50.876;4.736;2023-08-31T02:38:54;10.60;99.90
8820;DHT22;4446;50.876;4.736;2023-08-31T02:41:21;10.60;99.90
8820;DHT22;4446;50.876;4.736;2023-08-31T02:43:50;10.70;99.90
8820;DHT22;4446;50.876;4.736;2023-08-31T02:46:17;10.60;99.90
8820;DHT22;4446;50.876;4.736;2023-08-31T02:48:44;10.60;99.90
8820;DHT22;4446;50.876;4.736;2023-08-31T02:51:13;10.50;99.90
8820;DHT22;4446;50.876;4.736;2023-08-31T02:53:40;10.40;99.90
8820;DHT22;4446;50.876;4.736;2023-08-31T02:56:07;10.40;99.90
8820;DHT22;4446;50.876;4.736;2023-08-31T02:58:34;10.40;99.90
8820;DHT22;4446;50.876;4.736;2023-08-31T03:01:08;10.50;99.90
8820;DHT22;4446;50.876;4.736;2023-08-31T03:03:37;10.60;99.90
8820;DHT22;4446;50.876;4.736;2023-08-31T03:06:05;10.70;99.90
8820;DHT22;4446;50.876;4.736;2023-08-31T03:08:34;10.70;99.90
8820;DHT22;4446;50.876;4.736;2023-08-31T03:11:02;10.80;99.90
8820;DHT22;4446;50.876;4.736;2023-08-31T03:13:31;10.70;99.90
8820;DHT22;4446;50.876;4.736;2023-08-31T03:15:59;10.70;99.90
8820;DHT22;4446;50.876;4.736;2023-08-31T03:18:26;10.70;99.90
8820;DHT22;4446;50.876;4.736;2023-08-31T03:20:54;10.70;99.90
8820;DHT22;4446;50.876;4.736;2023-08-31T03:23:21;10.80;99.90
8820;DHT22;4446;50.876;4.736;2023-08-31T03:25:50;10.80;99.90
8820;DHT22;4446;50.876;4.736;2023-08-31T03:28:17;10.80;99.90
8820;DHT22;4446;50.876;4.736;2023-08-31T03:30:44;10.80;99.90
8820;DHT22;4446;50.876;4.736;2023-08-31T03:33:11;10.80;99.90
8820;DHT22;4446;50.876;4.736;2023-08-31T03:35:39;10.80;99.90
8820;DHT22;4446;50.876;4.736;2023-08-31T03:38:06;10.90;99.90
8820;DHT22;4446;50.876;4.736;2023-08-31T03:40:33;10.90;99.90
8820;DHT22;4446;50.876;4.736;2023-08-31T03:43:01;11.00;99.90
8820;DHT22;4446;50.876;4.736;2023-08-31T03:45:29;11.00;99.90
8820;DHT22;4446;50.876;4.736;2023-08-31T03:47:56;11.10;99.90
8820;DHT22;4446;50.876;4.736;2023-08-31T03:50:25;11.10;99.90
8820;DHT22;4446;50.876;4.736;2023-08-31T03:52:52;11.10;99.90
8820;DHT22;4446;50.876;4.736;2023-08-31T03:55:19;11.10;99.90
8820;DHT22;4446;50.876;4.736;2023-08-31T03:57:46;11.10;99.90
8820;DHT22;4446;50.876;4.736;2023-08-31T04:00:15;11.10;99.90
8820;DHT22;4446;50.876;4.736;2023-08-31T04:02:43;11.00;99.90
8820;DHT22;4446;50.876;4.736;2023-08-31T04:05:10;11.00;99.90
8820;DHT22;4446;50.876;4.736;2023-08-31T04:07:39;11.00;99.90
8820;DHT22;4446;50.876;4.736;2023-08-31T04:10:08;11.00;99.90
8820;DHT22;4446;50.876;4.736;2023-08-31T04:12:35;11.10;99.90
8820;DHT22;4446;50.876;4.736;2023-08-31T04:15:03;11.10;99.90
8820;DHT22;4446;50.876;4.736;2023-08-31T04:17:32;11.20;99.90
8820;DHT22;4446;50.876;4.736;2023-08-31T04:19:59;11.10;99.90
8820;DHT22;4446;50.876;4.736;2023-08-31T04:22:26;11.10;99.90
8820;DHT22;4446;50.876;4.736;2023-08-31T04:24:53;11.10;99.90
8820;DHT22;4446;50.876;4.736;2023-08-31T04:27:20;11.10;99.90
8820;DHT22;4446;50.876;4.736;2023-08-31T04:29:47;11.00;99.90
8820;DHT22;4446;50.876;4.736;2023-08-31T04:32:15;10.90;99.90
8820;DHT22;4446;50.876;4.736;2023-08-31T04:34:43;10.90;99.90
8820;DHT22;4446;50.876;4.736;2023-08-31T04:37:11;10.80;99.90
8820;DHT22;4446;50.876;4.736;2023-08-31T04:39:41;10.80;99.90
8820;DHT22;4446;50.876;4.736;2023-08-31T04:42:08;10.70;99.90
8820;DHT22;4446;50.876;4.736;2023-08-31T04:44:35;10.60;99.90
8820;DHT22;4446;50.876;4.736;2023-08-31T04:47:04;10.60;99.90
8820;DHT22;4446;50.876;4.736;2023-08-31T04:49:31;10.60;99.90
8820;DHT22;4446;50.876;4.736;2023-08-31T04:52:00;10.60;99.90
8820;DHT22;4446;50.876;4.736;2023-08-31T04:54:28;10.50;99.90
8820;DHT22;4446;50.876;4.736;2023-08-31T04:56:55;10.60;99.90
8820;DHT22;4446;50.876;4.736;2023-08-31T04:59:23;10.60;99.90
8820;DHT22;4446;50.876;4.736;2023-08-31T05:01:50;10.60;99.90
8820;DHT22;4446;50.876;4.736;2023-08-31T05:04:17;10.60;99.90
8820;DHT22;4446;50.876;4.736;2023-08-31T05:06:44;10.80;99.90
8820;DHT22;4446;50.876;4.736;2023-08-31T05:09:13;10.80;99.90
8820;DHT22;4446;50.876;4.736;2023-08-31T05:11:40;10.80;99.90
8820;DHT22;4446;50.876;4.736;2023-08-31T05:14:06;10.90;99.90
8820;DHT22;4446;50.876;4.736;2023-08-31T05:16:33;10.90;99.90
8820;DHT22;4446;50.876;4.736;2023-08-31T05:19:00;10.90;99.90
8820;DHT22;4446;50.876;4.736;2023-08-31T05:21:28;10.90;99.90
8820;DHT22;4446;50.876;4.736;2023-08-31T05:23:56;10.80;99.90
8820;DHT22;4446;50.876;4.736;2023-08-31T05:26:24;10.80;99.90
8820;DHT22;4446;50.876;4.736;2023-08-31T05:28:51;10.80;99.90
8820;DHT22;4446;50.876;4.736;2023-08-31T05:31:18;10.90;99.90
8820;DHT22;4446;50.876;4.736;2023-08-31T05:33:45;11.00;99.90
8820;DHT22;4446;50.876;4.736;2023-08-31T05:36:12;11.00;99.90
8820;DHT22;4446;50.876;4.736;2023-08-31T05:38:39;11.00;99.90
8820;DHT22;4446;50.876;4.736;2023-08-31T05:41:06;11.10;99.90
8820;DHT22;4446;50.876;4.736;2023-08-31T05:43:36;11.10;99.90
8820;DHT22;4446;50.876;4.736;2023-08-31T05:46:06;11.10;99.90
8820;DHT22;4446;50.876;4.736;2023-08-31T05:48:33;11.20;99.90
8820;DHT22;4446;50.876;4.736;2023-08-31T05:51:00;11.20;99.90
8820;DHT22;4446;50.876;4.736;2023-08-31T05:53:27;11.30;99.90
8820;DHT22;4446;50.876;4.736;2023-08-31T05:55:55;11.40;99.90
8820;DHT22;4446;50.876;4.736;2023-08-31T05:58:28;11.40;99.90
8820;DHT22;4446;50.876;4.736;2023-08-31T06:00:57;11.40;99.90
8820;DHT22;4446;50.876;4.736;2023-08-31T06:03:25;11.50;99.90
8820;DHT22;4446;50.876;4.736;2023-08-31T06:05:52;11.60;99.90
8820;DHT22;4446;50.876;4.736;2023-08-31T06:08:19;11.60;99.90
8820;DHT22;4446;50.876;4.736;2023-08-31T06:10:46;11.70;99.90
8820;DHT22;4446;50.876;4.736;2023-08-31T06:13:13;11.70;99.90
8820;DHT22;4446;50.876;4.736;2023-08-31T06:15:40;11.80;99.90
8820;DHT22;4446;50.876;4.736;2023-08-31T06:18:08;11.80;99.90
8820;DHT22;4446;50.876;4.736;2023-08-31T06:20:35;11.90;99.90
8820;DHT22;4446;50.876;4.736;2023-08-31T06:23:03;12.00;99.90
8820;DHT22;4446;50.876;4.736;2023-08-31T06:25:30;12.00;99.90
8820;DHT22;4446;50.876;4.736;2023-08-31T06:27:57;12.00;99.90
8820;DHT22;4446;50.876;4.736;2023-08-31T06:30:24;12.00;99.90
8820;DHT22;4446;50.876;4.736;2023-08-31T06:32:51;12.10;99.90
8820;DHT22;4446;50.876;4.736;2023-08-31T06:35:19;12.10;99.90
8820;DHT22;4446;50.876;4.736;2023-08-31T06:37:47;12.30;99.90
8820;DHT22;4446;50.876;4.736;2023-08-31T06:40:15;12.30;99.90
8820;DHT22;4446;50.876;4.736;2023-08-31T06:42:42;12.30;99.90
8820;DHT22;4446;50.876;4.736;2023-08-31T06:45:10;12.30;99.90
8820;DHT22;4446;50.876;4.736;2023-08-31T06:47:37;12.40;99.90
8820;DHT22;4446;50.876;4.736;2023-08-31T06:50:04;12.50;99.90
8820;DHT22;4446;50.876;4.736;2023-08-31T06:52:33;12.50;99.90
8820;DHT22;4446;50.876;4.736;2023-08-31T06:55:00;12.50;99.90
8820;DHT22;4446;50.876;4.736;2023-08-31T06:57:28;12.60;99.90
8820;DHT22;4446;50.876;4.736;2023-08-31T06:59:55;12.70;99.90
8820;DHT22;4446;50.876;4.736;2023-08-31T07:02:22;12.70;99.90
8820;DHT22;4446;50.876;4.736;2023-08-31T07:04:50;12.80;99.90
8820;DHT22;4446;50.876;4.736;2023-08-31T07:07:18;12.80;99.90
8820;DHT22;4446;50.876;4.736;2023-08-31T07:09:48;12.80;99.90
8820;DHT22;4446;50.876;4.736;2023-08-31T07:12:15;12.90;99.90
8820;DHT22;4446;50.876;4.736;2023-08-31T07:14:42;12.90;99.90
8820;DHT22;4446;50.876;4.736;2023-08-31T07:17:09;13.00;99.90
8820;DHT22;4446;50.876;4.736;2023-08-31T07:19:37;13.10;99.90
8820;DHT22;4446;50.876;4.736;2023-08-31T07:22:04;13.10;99.90
8820;DHT22;4446;50.876;4.736;2023-08-31T07:24:31;13.20;99.90
8820;DHT22;4446;50.876;4.736;2023-08-31T07:27:02;13.30;99.90
8820;DHT22;4446;50.876;4.736;2023-08-31T07:29:29;13.30;99.90
8820;DHT22;4446;50.876;4.736;2023-08-31T07:31:56;13.40;99.90
8820;DHT22;4446;50.876;4.736;2023-08-31T07:34:23;13.40;99.90
8820;DHT22;4446;50.876;4.736;2023-08-31T07:36:50;13.50;99.90
8820;DHT22;4446;50.876;4.736;2023-08-31T07:39:17;13.50;99.90
8820;DHT22;4446;50.876;4.736;2023-08-31T07:41:44;13.60;99.90
8820;DHT22;4446;50.876;4.736;2023-08-31T07:44:13;13.60;99.90
8820;DHT22;4446;50.876;4.736;2023-08-31T07:46:40;13.70;99.90
8820;DHT22;4446;50.876;4.736;2023-08-31T07:49:07;13.80;99.90
8820;DHT22;4446;50.876;4.736;2023-08-31T07:51:34;13.90;99.90
8820;DHT22;4446;50.876;4.736;2023-08-31T07:54:01;13.90;99.90
8820;DHT22;4446;50.876;4.736;2023-08-31T07:56:29;14.00;99.90
8820;DHT22;4446;50.876;4.736;2023-08-31T07:58:56;14.00;99.90
8820;DHT22;4446;50.876;4.736;2023-08-31T08:01:25;14.00;99.90
8820;DHT22;4446;50.876;4.736;2023-08-31T08:03:52;14.10;99.90
8820;DHT22;4446;50.876;4.736;2023-08-31T08:06:19;14.10;99.90
8820;DHT22;4446;50.876;4.736;2023-08-31T08:08:47;14.20;99.90
8820;DHT22;4446;50.876;4.736;2023-08-31T08:11:14;14.30;99.90
8820;DHT22;4446;50.876;4.736;2023-08-31T08:13:42;14.40;99.90
8820;DHT22;4446;50.876;4.736;2023-08-31T08:16:09;14.40;99.90
8820;DHT22;4446;50.876;4.736;2023-08-31T08:18:38;14.50;99.90
8820;DHT22;4446;50.876;4.736;2023-08-31T08:21:05;14.60;99.90
8820;DHT22;4446;50.876;4.736;2023-08-31T08:23:32;14.60;99.90
8820;DHT22;4446;50.876;4.736;2023-08-31T08:25:59;14.60;99.90
8820;DHT22;4446;50.876;4.736;2023-08-31T08:28:27;14.70;99.90
8820;DHT22;4446;50.876;4.736;2023-08-31T08:30:54;14.70;99.90
8820;DHT22;4446;50.876;4.736;2023-08-31T08:33:21;14.80;99.90
8820;DHT22;4446;50.876;4.736;2023-08-31T08:35:49;14.90;99.90
8820;DHT22;4446;50.876;4.736;2023-08-31T08:38:16;15.00;99.90
8820;DHT22;4446;50.876;4.736;2023-08-31T08:40:43;15.00;99.90
8820;DHT22;4446;50.876;4.736;2023-08-31T08:43:11;15.10;99.90
8820;DHT22;4446;50.876;4.736;2023-08-31T08:45:38;15.20;99.90
8820;DHT22;4446;50.876;4.736;2023-08-31T08:48:08;15.30;99.90
8820;DHT22;4446;50.876;4.736;2023-08-31T08:50:36;15.30;99.90
8820;DHT22;4446;50.876;4.736;2023-08-31T08:53:05;15.40;99.90
8820;DHT22;4446;50.876;4.736;2023-08-31T08:55:33;15.60;99.90
8820;DHT22;4446;50.876;4.736;2023-08-31T08:58:00;15.60;99.90
8820;DHT22;4446;50.876;4.736;2023-08-31T09:00:29;15.80;99.90
8820;DHT22;4446;50.876;4.736;2023-08-31T09:02:58;15.70;99.90
8820;DHT22;4446;50.876;4.736;2023-08-31T09:05:26;15.70;99.90
8820;DHT22;4446;50.876;4.736;2023-08-31T09:08:05;15.80;99.90
8820;DHT22;4446;50.876;4.736;2023-08-31T09:10:37;15.80;99.90
8820;DHT22;4446;50.876;4.736;2023-08-31T09:13:07;15.80;99.90
8820;DHT22;4446;50.876;4.736;2023-08-31T09:15:43;15.80;99.90
8820;DHT22;4446;50.876;4.736;2023-08-31T09:18:17;15.80;99.90
8820;DHT22;4446;50.876;4.736;2023-08-31T09:20:49;15.90;99.90
8820;DHT22;4446;50.876;4.736;2023-08-31T09:23:18;16.00;99.90
8820;DHT22;4446;50.876;4.736;2023-08-31T09:25:46;16.10;99.90
8820;DHT22;4446;50.876;4.736;2023-08-31T09:28:15;16.10;99.90
8820;DHT22;4446;50.876;4.736;2023-08-31T09:30:42;16.00;99.90
8820;DHT22;4446;50.876;4.736;2023-08-31T09:33:10;16.20;99.90
8820;DHT22;4446;50.876;4.736;2023-08-31T09:35:40;16.20;99.90
8820;DHT22;4446;50.876;4.736;2023-08-31T09:38:08;16.30;99.90
8820;DHT22;4446;50.876;4.736;2023-08-31T09:40:37;16.30;99.90
8820;DHT22;4446;50.876;4.736;2023-08-31T09:43:04;16.30;99.90
8820;DHT22;4446;50.876;4.736;2023-08-31T09:45:32;16.40;99.90
8820;DHT22;4446;50.876;4.736;2023-08-31T09:48:02;16.60;99.90
8820;DHT22;4446;50.876;4.736;2023-08-31T09:50:30;16.70;99.90
8820;DHT22;4446;50.876;4.736;2023-08-31T09:53:01;16.90;99.90
8820;DHT22;4446;50.876;4.736;2023-08-31T09:55:30;17.00;99.90
8820;DHT22;4446;50.876;4.736;2023-08-31T09:58:00;17.10;99.90
8820;DHT22;4446;50.876;4.736;2023-08-31T10:00:29;17.30;99.90
8820;DHT22;4446;50.876;4.736;2023-08-31T10:02:58;17.40;99.90
8820;DHT22;4446;50.876;4.736;2023-08-31T10:05:27;17.40;99.90
8820;DHT22;4446;50.876;4.736;2023-08-31T10:07:55;17.50;99.90
8820;DHT22;4446;50.876;4.736;2023-08-31T10:10:22;17.60;99.90
8820;DHT22;4446;50.876;4.736;2023-08-31T10:12:49;17.80;99.90
8820;DHT22;4446;50.876;4.736;2023-08-31T10:15:19;17.90;99.90
8820;DHT22;4446;50.876;4.736;2023-08-31T10:17:46;18.10;99.90
8820;DHT22;4446;50.876;4.736;2023-08-31T10:20:16;18.10;99.90
8820;DHT22;4446;50.876;4.736;2023-08-31T10:22:44;18.30;99.90
8820;DHT22;4446;50.876;4.736;2023-08-31T10:25:11;18.50;99.90
8820;DHT22;4446;50.876;4.736;2023-08-31T10:27:39;18.80;99.90
8820;DHT22;4446;50.876;4.736;2023-08-31T10:30:28;18.90;99.90
8820;DHT22;4446;50.876;4.736;2023-08-31T10:35:49;19.10;99.90
8820;DHT22;4446;50.876;4.736;2023-08-31T10:38:22;19.20;99.90
8820;DHT22;4446;50.876;4.736;2023-08-31T10:41:18;19.40;99.90
8820;DHT22;4446;50.876;4.736;2023-08-31T10:43:49;19.70;99.90
8820;DHT22;4446;50.876;4.736;2023-08-31T10:46:24;19.70;99.90
8820;DHT22;4446;50.876;4.736;2023-08-31T10:48:52;19.80;99.90
8820;DHT22;4446;50.876;4.736;2023-08-31T10:51:22;20.00;99.90
8820;DHT22;4446;50.876;4.736;2023-08-31T10:53:50;20.10;99.90
8820;DHT22;4446;50.876;4.736;2023-08-31T10:56:17;20.30;99.90
8820;DHT22;4446;50.876;4.736;2023-08-31T10:58:57;20.50;99.90
8820;DHT22;4446;50.876;4.736;2023-08-31T11:01:53;20.50;99.90
8820;DHT22;4446;50.876;4.736;2023-08-31T11:04:21;20.50;99.90
8820;DHT22;4446;50.876;4.736;2023-08-31T11:06:49;20.30;99.90
8820;DHT22;4446;50.876;4.736;2023-08-31T11:09:20;20.20;99.90
8820;DHT22;4446;50.876;4.736;2023-08-31T11:11:48;20.20;99.90
8820;DHT22;4446;50.876;4.736;2023-08-31T11:14:15;20.30;99.90
8820;DHT22;4446;50.876;4.736;2023-08-31T11:16:43;20.30;99.90
8820;DHT22;4446;50.876;4.736;2023-08-31T11:19:12;20.20;99.90
8820;DHT22;4446;50.876;4.736;2023-08-31T11:21:41;20.10;99.90
8820;DHT22;4446;50.876;4.736;2023-08-31T11:24:09;19.90;99.90
8820;DHT22;4446;50.876;4.736;2023-08-31T11:26:36;19.70;99.90
8820;DHT22;4446;50.876;4.736;2023-08-31T11:29:06;19.90;99.90
8820;DHT22;4446;50.876;4.736;2023-08-31T11:31:38;20.10;99.90
8820;DHT22;4446;50.876;4.736;2023-08-31T11:34:06;20.30;99.90
8820;DHT22;4446;50.876;4.736;2023-08-31T11:36:36;20.30;99.90
8820;DHT22;4446;50.876;4.736;2023-08-31T11:39:03;20.50;99.90
8820;DHT22;4446;50.876;4.736;2023-08-31T11:41:32;20.60;99.90
8820;DHT22;4446;50.876;4.736;2023-08-31T11:44:01;20.80;99.90
8820;DHT22;4446;50.876;4.736;2023-08-31T11:46:29;20.90;99.90
8820;DHT22;4446;50.876;4.736;2023-08-31T11:48:58;21.00;99.90
8820;DHT22;4446;50.876;4.736;2023-08-31T11:51:25;21.00;99.90
8820;DHT22;4446;50.876;4.736;2023-08-31T11:53:56;21.10;99.90
8820;DHT22;4446;50.876;4.736;2023-08-31T11:56:25;21.10;99.90
8820;DHT22;4446;50.876;4.736;2023-08-31T11:58:52;21.20;99.90
8820;DHT22;4446;50.876;4.736;2023-08-31T12:01:20;21.00;99.90
8820;DHT22;4446;50.876;4.736;2023-08-31T12:03:48;20.90;99.90
8820;DHT22;4446;50.876;4.736;2023-08-31T12:06:15;21.00;99.90
8820;DHT22;4446;50.876;4.736;2023-08-31T12:08:44;21.00;99.90
8820;DHT22;4446;50.876;4.736;2023-08-31T12:11:12;20.90;99.90
8820;DHT22;4446;50.876;4.736;2023-08-31T12:13:40;20.90;99.90
8820;DHT22;4446;50.876;4.736;2023-08-31T12:16:12;21.00;99.90
8820;DHT22;4446;50.876;4.736;2023-08-31T12:18:39;21.10;99.90
8820;DHT22;4446;50.876;4.736;2023-08-31T12:21:07;21.00;99.90
8820;DHT22;4446;50.876;4.736;2023-08-31T12:23:34;21.10;99.90
8820;DHT22;4446;50.876;4.736;2023-08-31T12:26:01;21.20;99.90
8820;DHT22;4446;50.876;4.736;2023-08-31T12:28:32;21.10;99.90
8820;DHT22;4446;50.876;4.736;2023-08-31T12:31:00;20.90;99.90
8820;DHT22;4446;50.876;4.736;2023-08-31T12:33:27;20.80;99.90
8820;DHT22;4446;50.876;4.736;2023-08-31T12:35:54;20.80;99.90
8820;DHT22;4446;50.876;4.736;2023-08-31T12:38:21;20.80;99.90
8820;DHT22;4446;50.876;4.736;2023-08-31T12:40:48;20.40;99.90
8820;DHT22;4446;50.876;4.736;2023-08-31T12:43:15;20.20;99.90
8820;DHT22;4446;50.876;4.736;2023-08-31T12:45:44;20.00;99.90
8820;DHT22;4446;50.876;4.736;2023-08-31T12:48:11;19.90;99.90
8820;DHT22;4446;50.876;4.736;2023-08-31T12:50:38;19.70;99.90
8820;DHT22;4446;50.876;4.736;2023-08-31T12:53:05;19.70;99.90
8820;DHT22;4446;50.876;4.736;2023-08-31T12:55:32;19.70;99.90
8820;DHT22;4446;50.876;4.736;2023-08-31T12:57:59;19.50;99.90
8820;DHT22;4446;50.876;4.736;2023-08-31T13:00:26;19.40;99.90
8820;DHT22;4446;50.876;4.736;2023-08-31T13:02:55;19.50;99.90
8820;DHT22;4446;50.876;4.736;2023-08-31T13:05:22;19.50;99.90
8820;DHT22;4446;50.876;4.736;2023-08-31T13:07:49;19.60;99.90
8820;DHT22;4446;50.876;4.736;2023-08-31T13:10:16;19.80;99.90
8820;DHT22;4446;50.876;4.736;2023-08-31T13:12:43;19.80;99.90
8820;DHT22;4446;50.876;4.736;2023-08-31T13:15:10;20.00;99.90
8820;DHT22;4446;50.876;4.736;2023-08-31T13:17:38;20.10;99.90
8820;DHT22;4446;50.876;4.736;2023-08-31T13:20:08;20.40;99.90
8820;DHT22;4446;50.876;4.736;2023-08-31T13:22:35;20.60;99.90
8820;DHT22;4446;50.876;4.736;2023-08-31T13:25:03;20.60;99.90
8820;DHT22;4446;50.876;4.736;2023-08-31T13:27:32;20.80;99.90
8820;DHT22;4446;50.876;4.736;2023-08-31T13:30:00;21.20;99.90
8820;DHT22;4446;50.876;4.736;2023-08-31T13:32:32;21.40;99.90
8820;DHT22;4446;50.876;4.736;2023-08-31T13:34:59;21.60;99.90
8820;DHT22;4446;50.876;4.736;2023-08-31T13:37:28;21.90;99.90
8820;DHT22;4446;50.876;4.736;2023-08-31T13:39:55;21.80;99.90
8820;DHT22;4446;50.876;4.736;2023-08-31T13:42:23;21.80;99.90
8820;DHT22;4446;50.876;4.736;2023-08-31T13:44:50;21.70;99.90
8820;DHT22;4446;50.876;4.736;2023-08-31T13:47:17;21.90;99.90
8820;DHT22;4446;50.876;4.736;2023-08-31T13:49:44;21.80;99.90
8820;DHT22;4446;50.876;4.736;2023-08-31T13:52:12;21.80;99.90
8820;DHT22;4446;50.876;4.736;2023-08-31T13:54:41;21.80;99.90
8820;DHT22;4446;50.876;4.736;2023-08-31T13:57:08;22.10;99.90
8820;DHT22;4446;50.876;4.736;2023-08-31T13:59:35;22.00;99.90
8820;DHT22;4446;50.876;4.736;2023-08-31T14:02:03;21.80;99.90
8820;DHT22;4446;50.876;4.736;2023-08-31T14:04:31;21.50;99.90
8820;DHT22;4446;50.876;4.736;2023-08-31T14:06:58;21.70;99.90
8820;DHT22;4446;50.876;4.736;2023-08-31T14:09:27;21.80;99.90
8820;DHT22;4446;50.876;4.736;2023-08-31T14:12:01;21.80;99.90
8820;DHT22;4446;50.876;4.736;2023-08-31T14:14:31;22.00;99.90
8820;DHT22;4446;50.876;4.736;2023-08-31T14:17:08;22.20;99.90
8820;DHT22;4446;50.876;4.736;2023-08-31T14:19:37;22.10;99.90
8820;DHT22;4446;50.876;4.736;2023-08-31T14:22:05;22.00;99.90
8820;DHT22;4446;50.876;4.736;2023-08-31T14:24:32;22.20;99.90
8820;DHT22;4446;50.876;4.736;2023-08-31T14:27:01;22.10;99.90
8820;DHT22;4446;50.876;4.736;2023-08-31T14:29:28;22.50;99.90
8820;DHT22;4446;50.876;4.736;2023-08-31T14:31:56;22.40;99.90
8820;DHT22;4446;50.876;4.736;2023-08-31T14:34:23;22.20;99.90
8820;DHT22;4446;50.876;4.736;2023-08-31T14:36:50;22.10;99.90
8820;DHT22;4446;50.876;4.736;2023-08-31T14:39:18;21.90;99.90
8820;DHT22;4446;50.876;4.736;2023-08-31T14:41:45;22.20;99.90
8820;DHT22;4446;50.876;4.736;2023-08-31T14:44:13;22.10;99.90
8820;DHT22;4446;50.876;4.736;2023-08-31T14:46:40;22.10;99.90
8820;DHT22;4446;50.876;4.736;2023-08-31T14:49:07;22.10;99.90
8820;DHT22;4446;50.876;4.736;2023-08-31T14:51:34;22.10;99.90
8820;DHT22;4446;50.876;4.736;2023-08-31T14:54:01;22.00;99.90
8820;DHT22;4446;50.876;4.736;2023-08-31T14:56:28;21.70;99.90
8820;DHT22;4446;50.876;4.736;2023-08-31T14:58:55;21.50;99.90
8820;DHT22;4446;50.876;4.736;2023-08-31T15:01:24;21.30;99.90
8820;DHT22;4446;50.876;4.736;2023-08-31T15:03:51;21.10;99.90
8820;DHT22;4446;50.876;4.736;2023-08-31T15:06:18;20.90;99.90
8820;DHT22;4446;50.876;4.736;2023-08-31T15:08:46;20.80;99.90
8820;DHT22;4446;50.876;4.736;2023-08-31T15:11:13;20.90;99.90
8820;DHT22;4446;50.876;4.736;2023-08-31T15:13:40;20.70;99.90
8820;DHT22;4446;50.876;4.736;2023-08-31T15:16:07;20.70;99.90
8820;DHT22;4446;50.876;4.736;2023-08-31T15:18:35;20.80;99.90
8820;DHT22;4446;50.876;4.736;2023-08-31T15:21:03;20.90;99.90
8820;DHT22;4446;50.876;4.736;2023-08-31T15:23:29;20.90;99.90
8820;DHT22;4446;50.876;4.736;2023-08-31T15:25:59;20.90;99.90
8820;DHT22;4446;50.876;4.736;2023-08-31T15:28:26;20.60;99.90
8820;DHT22;4446;50.876;4.736;2023-08-31T15:30:54;20.60;99.90
8820;DHT22;4446;50.876;4.736;2023-08-31T15:33:21;20.60;99.90
8820;DHT22;4446;50.876;4.736;2023-08-31T15:35:49;20.60;99.90
8820;DHT22;4446;50.876;4.736;2023-08-31T15:38:16;20.70;99.90
8820;DHT22;4446;50.876;4.736;2023-08-31T15:40:46;20.60;99.90
8820;DHT22;4446;50.876;4.736;2023-08-31T15:43:13;20.40;99.90
8820;DHT22;4446;50.876;4.736;2023-08-31T15:45:45;20.30;99.90
8820;DHT22;4446;50.876;4.736;2023-08-31T15:48:13;20.20;99.90
8820;DHT22;4446;50.876;4.736;2023-08-31T15:50:41;20.30;99.90
8820;DHT22;4446;50.876;4.736;2023-08-31T15:53:09;20.00;99.90
8820;DHT22;4446;50.876;4.736;2023-08-31T15:55:36;20.00;99.90
8820;DHT22;4446;50.876;4.736;2023-08-31T15:58:03;19.70;99.90
8820;DHT22;4446;50.876;4.736;2023-08-31T16:00:30;19.60;99.90
8820;DHT22;4446;50.876;4.736;2023-08-31T16:02:57;19.70;99.90
8820;DHT22;4446;50.876;4.736;2023-08-31T16:05:24;19.60;99.90
8820;DHT22;4446;50.876;4.736;2023-08-31T16:07:52;19.40;99.90
8820;DHT22;4446;50.876;4.736;2023-08-31T16:10:20;19.50;99.90